sensor_id;sensor_type;location;lat;lon;timestamp;pressure;altitude;pressure_sealevel;temperature;humidity
76424;BME280;65257;52.104;4.268;2024-03-29T00:02:13;98741.97;;;9.70;62.33
76424;BME280;65257;52.104;4.268;2024-03-29T00:04:44;98741.13;;;9.70;62.20
76424;BME280;65257;52.104;4.268;2024-03-29T00:07:15;98738.31;;;9.71;62.37
76424;BME280;65257;52.104;4.268;2024-03-29T00:09:41;98742.59;;;9.72;62.35
76424;BME280;65257;52.104;4.268;2024-03-29T00:12:06;98756.06;;;9.71;62.42
76424;BME280;65257;52.104;4.268;2024-03-29T00:14:33;98738.94;;;9.73;61.98
76424;BME280;65257;52.104;4.268;2024-03-29T00:16:58;98753.22;;;9.72;62.27
76424;BME280;65257;52.104;4.268;2024-03-29T00:19:24;98754.25;;;9.71;62.43
76424;BME280;65257;52.104;4.268;2024-03-29T00:21:52;98746.44;;;9.70;62.11
76424;BME280;65257;52.104;4.268;2024-03-29T00:24:48;98752.78;;;9.69;62.30
76424;BME280;65257;52.104;4.268;2024-03-29T00:27:25;98753.56;;;9.69;61.88
76424;BME280;65257;52.104;4.268;2024-03-29T00:29:56;98756.06;;;9.71;62.70
76424;BME280;65257;52.104;4.268;2024-03-29T00:32:25;98753.06;;;9.74;61.94
76424;BME280;65257;52.104;4.268;2024-03-29T00:34:54;98759.00;;;9.76;61.79
76424;BME280;65257;52.104;4.268;2024-03-29T00:37:21;98754.53;;;9.76;61.94
76424;BME280;65257;52.104;4.268;2024-03-29T00:39:47;98762.28;;;9.78;62.16
76424;BME280;65257;52.104;4.268;2024-03-29T00:42:13;98772.47;;;9.74;61.91
76424;BME280;65257;52.104;4.268;2024-03-29T00:44:43;98791.22;;;9.73;61.63
76424;BME280;65257;52.104;4.268;2024-03-29T00:47:09;98767.16;;;9.74;61.77
76424;BME280;65257;52.104;4.268;2024-03-29T00:49:36;98768.97;;;9.74;62.33
76424;BME280;65257;52.104;4.268;2024-03-29T00:52:02;98769.81;;;9.74;62.04
76424;BME280;65257;52.104;4.268;2024-03-29T00:54:28;98746.91;;;9.73;62.09
76424;BME280;65257;52.104;4.268;2024-03-29T00:56:56;98765.50;;;9.73;61.92
76424;BME280;65257;52.104;4.268;2024-03-29T00:59:25;98765.28;;;9.75;61.80
76424;BME280;65257;52.104;4.268;2024-03-29T01:01:50;98788.19;;;9.76;61.68
76424;BME280;65257;52.104;4.268;2024-03-29T01:04:16;98758.00;;;9.77;61.31
76424;BME280;65257;52.104;4.268;2024-03-29T01:06:42;98777.84;;;9.81;61.12
76424;BME280;65257;52.104;4.268;2024-03-29T01:09:13;98771.56;;;9.82;61.26
76424;BME280;65257;52.104;4.268;2024-03-29T01:11:41;98773.81;;;9.85;61.19
76424;BME280;65257;52.104;4.268;2024-03-29T01:14:07;98770.00;;;9.88;61.03
76424;BME280;65257;52.104;4.268;2024-03-29T01:16:35;98783.09;;;9.89;60.84
76424;BME280;65257;52.104;4.268;2024-03-29T01:19:01;98771.75;;;9.95;60.91
76424;BME280;65257;52.104;4.268;2024-03-29T01:21:29;98799.94;;;9.96;60.60
76424;BME280;65257;52.104;4.268;2024-03-29T01:23:55;98768.91;;;9.97;60.62
76424;BME280;65257;52.104;4.268;2024-03-29T01:26:20;98783.47;;;10.01;60.65
76424;BME280;65257;52.104;4.268;2024-03-29T01:28:46;98773.84;;;10.00;60.26
76424;BME280;65257;52.104;4.268;2024-03-29T01:31:12;98783.66;;;9.99;60.25
76424;BME280;65257;52.104;4.268;2024-03-29T01:33:38;98782.66;;;10.00;60.57
76424;BME280;65257;52.104;4.268;2024-03-29T01:36:08;98777.34;;;10.00;60.00
76424;BME280;65257;52.104;4.268;2024-03-29T01:38:34;98764.69;;;10.02;60.28
76424;BME280;65257;52.104;4.268;2024-03-29T01:41:00;98770.63;;;10.04;60.40
76424;BME280;65257;52.104;4.268;2024-03-29T01:43:34;98798.22;;;10.03;60.37
76424;BME280;65257;52.104;4.268;2024-03-29T01:46:00;98760.38;;;10.01;60.34
76424;BME280;65257;52.104;4.268;2024-03-29T01:48:30;98766.88;;;9.99;60.44
76424;BME280;65257;52.104;4.268;2024-03-29T01:50:57;98758.47;;;9.95;60.11
76424;BME280;65257;52.104;4.268;2024-03-29T01:53:23;98753.69;;;9.91;60.42
76424;BME280;65257;52.104;4.268;2024-03-29T01:55:50;98756.72;;;9.88;60.16
76424;BME280;65257;52.104;4.268;2024-03-29T01:58:17;98763.50;;;9.90;59.89
76424;BME280;65257;52.104;4.268;2024-03-29T02:00:52;98765.13;;;9.91;59.79
76424;BME280;65257;52.104;4.268;2024-03-29T02:03:21;98753.53;;;9.92;59.77
76424;BME280;65257;52.104;4.268;2024-03-29T02:05:50;98757.19;;;9.91;59.86
76424;BME280;65257;52.104;4.268;2024-03-29T02:08:16;98751.84;;;9.91;60.11
76424;BME280;65257;52.104;4.268;2024-03-29T02:10:43;98754.34;;;9.93;59.61
76424;BME280;65257;52.104;4.268;2024-03-29T02:13:09;98743.91;;;9.91;59.71
76424;BME280;65257;52.104;4.268;2024-03-29T02:15:34;98758.84;;;9.92;60.11
76424;BME280;65257;52.104;4.268;2024-03-29T02:18:00;98762.31;;;9.93;60.05
76424;BME280;65257;52.104;4.268;2024-03-29T02:20:28;98780.06;;;9.92;59.83
76424;BME280;65257;52.104;4.268;2024-03-29T02:22:58;98773.09;;;9.91;59.68
76424;BME280;65257;52.104;4.268;2024-03-29T02:25:26;98781.06;;;9.91;59.45
76424;BME280;65257;52.104;4.268;2024-03-29T02:28:00;98785.53;;;9.91;59.91
76424;BME280;65257;52.104;4.268;2024-03-29T02:30:30;98783.56;;;9.93;59.58
76424;BME280;65257;52.104;4.268;2024-03-29T02:32:57;98786.22;;;9.93;59.46
76424;BME280;65257;52.104;4.268;2024-03-29T02:35:22;98783.56;;;9.93;59.62
76424;BME280;65257;52.104;4.268;2024-03-29T02:37:50;98787.22;;;9.92;59.59
76424;BME280;65257;52.104;4.268;2024-03-29T02:40:17;98780.72;;;9.94;59.47
76424;BME280;65257;52.104;4.268;2024-03-29T02:42:43;98788.47;;;9.96;59.70
76424;BME280;65257;52.104;4.268;2024-03-29T02:45:11;98770.72;;;9.96;59.57
76424;BME280;65257;52.104;4.268;2024-03-29T02:47:37;98781.34;;;9.96;59.71
76424;BME280;65257;52.104;4.268;2024-03-29T02:50:03;98774.84;;;9.99;59.50
76424;BME280;65257;52.104;4.268;2024-03-29T02:52:29;98773.66;;;10.01;58.95
76424;BME280;65257;52.104;4.268;2024-03-29T02:54:55;98785.94;;;10.02;59.10
76424;BME280;65257;52.104;4.268;2024-03-29T02:57:20;98793.91;;;10.02;59.06
76424;BME280;65257;52.104;4.268;2024-03-29T02:59:46;98789.44;;;10.03;59.20
76424;BME280;65257;52.104;4.268;2024-03-29T03:02:11;98792.44;;;10.00;59.08
76424;BME280;65257;52.104;4.268;2024-03-29T03:04:37;98793.44;;;9.99;59.23
76424;BME280;65257;52.104;4.268;2024-03-29T03:07:02;98810.56;;;9.96;59.22
76424;BME280;65257;52.104;4.268;2024-03-29T03:09:46;98793.16;;;9.94;59.62
76424;BME280;65257;52.104;4.268;2024-03-29T03:12:37;98805.81;;;9.92;59.87
76424;BME280;65257;52.104;4.268;2024-03-29T03:15:06;98799.50;;;9.93;59.94
76424;BME280;65257;52.104;4.268;2024-03-29T03:17:35;98809.28;;;9.92;59.86
76424;BME280;65257;52.104;4.268;2024-03-29T03:20:00;98818.88;;;9.93;60.24
76424;BME280;65257;52.104;4.268;2024-03-29T03:22:26;98816.41;;;9.92;60.14
76424;BME280;65257;52.104;4.268;2024-03-29T03:24:57;98823.75;;;9.90;59.96
76424;BME280;65257;52.104;4.268;2024-03-29T03:27:22;98826.56;;;9.88;60.00
76424;BME280;65257;52.104;4.268;2024-03-29T03:29:48;98815.31;;;9.86;60.24
76424;BME280;65257;52.104;4.268;2024-03-29T03:32:14;98814.66;;;9.84;60.21
76424;BME280;65257;52.104;4.268;2024-03-29T03:34:42;98818.31;;;9.83;60.38
76424;BME280;65257;52.104;4.268;2024-03-29T03:37:07;98832.63;;;9.82;60.37
76424;BME280;65257;52.104;4.268;2024-03-29T03:39:33;98811.38;;;9.82;60.28
76424;BME280;65257;52.104;4.268;2024-03-29T03:41:59;98819.50;;;9.80;59.82
76424;BME280;65257;52.104;4.268;2024-03-29T03:44:24;98820.53;;;9.79;59.81
76424;BME280;65257;52.104;4.268;2024-03-29T03:46:55;98811.09;;;9.77;60.05
76424;BME280;65257;52.104;4.268;2024-03-29T03:49:21;98813.91;;;9.75;60.33
76424;BME280;65257;52.104;4.268;2024-03-29T03:51:47;98829.84;;;9.75;59.99
76424;BME280;65257;52.104;4.268;2024-03-29T03:54:15;98817.41;;;9.76;60.13
76424;BME280;65257;52.104;4.268;2024-03-29T03:56:41;98828.22;;;9.74;60.33
76424;BME280;65257;52.104;4.268;2024-03-29T03:59:08;98832.69;;;9.74;60.09
76424;BME280;65257;52.104;4.268;2024-03-29T04:01:34;98834.50;;;9.73;59.91
76424;BME280;65257;52.104;4.268;2024-03-29T04:04:11;98826.06;;;9.70;59.90
76424;BME280;65257;52.104;4.268;2024-03-29T04:06:39;98836.69;;;9.70;60.08
76424;BME280;65257;52.104;4.268;2024-03-29T04:09:05;98852.44;;;9.71;60.17
76424;BME280;65257;52.104;4.268;2024-03-29T04:11:30;98843.03;;;9.69;60.14
76424;BME280;65257;52.104;4.268;2024-03-29T04:13:57;98834.22;;;9.68;60.34
76424;BME280;65257;52.104;4.268;2024-03-29T04:16:26;98854.63;;;9.68;60.18
76424;BME280;65257;52.104;4.268;2024-03-29T04:19:00;98844.38;;;9.65;60.06
76424;BME280;65257;52.104;4.268;2024-03-29T04:21:25;98844.56;;;9.63;60.31
76424;BME280;65257;52.104;4.268;2024-03-29T04:23:51;98835.91;;;9.61;60.70
76424;BME280;65257;52.104;4.268;2024-03-29T04:26:16;98836.94;;;9.60;60.31
76424;BME280;65257;52.104;4.268;2024-03-29T04:28:41;98847.72;;;9.59;60.79
76424;BME280;65257;52.104;4.268;2024-03-29T04:31:07;98836.81;;;9.54;61.06
76424;BME280;65257;52.104;4.268;2024-03-29T04:33:32;98839.47;;;9.54;61.01
76424;BME280;65257;52.104;4.268;2024-03-29T04:36:04;98846.16;;;9.50;60.73
76424;BME280;65257;52.104;4.268;2024-03-29T04:38:30;98851.63;;;9.48;61.46
76424;BME280;65257;52.104;4.268;2024-03-29T04:40:57;98839.38;;;9.47;61.48
76424;BME280;65257;52.104;4.268;2024-03-29T04:43:25;98835.88;;;9.47;61.38
76424;BME280;65257;52.104;4.268;2024-03-29T04:46:16;98847.69;;;9.44;61.61
76424;BME280;65257;52.104;4.268;2024-03-29T04:48:42;98858.47;;;9.43;61.91
76424;BME280;65257;52.104;4.268;2024-03-29T04:51:09;98856.81;;;9.42;61.62
76424;BME280;65257;52.104;4.268;2024-03-29T04:53:38;98861.28;;;9.41;61.73
76424;BME280;65257;52.104;4.268;2024-03-29T04:56:07;98876.72;;;9.38;62.45
76424;BME280;65257;52.104;4.268;2024-03-29T04:58:32;98884.03;;;9.36;62.61
76424;BME280;65257;52.104;4.268;2024-03-29T05:00:58;98858.88;;;9.32;62.49
76424;BME280;65257;52.104;4.268;2024-03-29T05:03:24;98881.28;;;9.29;62.93
76424;BME280;65257;52.104;4.268;2024-03-29T05:05:50;98878.13;;;9.26;62.65
76424;BME280;65257;52.104;4.268;2024-03-29T05:08:18;98857.25;;;9.22;63.43
76424;BME280;65257;52.104;4.268;2024-03-29T05:10:54;98838.25;;;9.19;63.09
76424;BME280;65257;52.104;4.268;2024-03-29T05:13:19;98864.94;;;9.17;63.52
76424;BME280;65257;52.104;4.268;2024-03-29T05:15:48;98865.28;;;9.14;63.62
76424;BME280;65257;52.104;4.268;2024-03-29T05:18:13;98877.69;;;9.14;63.69
76424;BME280;65257;52.104;4.268;2024-03-29T05:20:39;98860.31;;;9.11;64.15
76424;BME280;65257;52.104;4.268;2024-03-29T05:23:09;98875.56;;;9.09;64.43
76424;BME280;65257;52.104;4.268;2024-03-29T05:25:34;98883.53;;;9.09;64.32
76424;BME280;65257;52.104;4.268;2024-03-29T05:28:00;98885.53;;;9.07;64.52
76424;BME280;65257;52.104;4.268;2024-03-29T05:30:27;98882.06;;;9.07;64.33
76424;BME280;65257;52.104;4.268;2024-03-29T05:32:57;98889.38;;;9.05;64.39
76424;BME280;65257;52.104;4.268;2024-03-29T05:35:22;98899.78;;;9.06;64.54
76424;BME280;65257;52.104;4.268;2024-03-29T05:37:51;98901.78;;;9.04;64.62
76424;BME280;65257;52.104;4.268;2024-03-29T05:40:19;98914.41;;;9.02;65.07
76424;BME280;65257;52.104;4.268;2024-03-29T05:42:44;98913.75;;;9.00;65.38
76424;BME280;65257;52.104;4.268;2024-03-29T05:45:26;98929.50;;;8.94;65.45
76424;BME280;65257;52.104;4.268;2024-03-29T05:47:53;98976.28;;;8.87;65.50
76424;BME280;65257;52.104;4.268;2024-03-29T05:50:27;98928.06;;;8.83;65.88
76424;BME280;65257;52.104;4.268;2024-03-29T05:52:53;98931.88;;;8.81;66.13
76424;BME280;65257;52.104;4.268;2024-03-29T05:55:20;98928.56;;;8.79;65.98
76424;BME280;65257;52.104;4.268;2024-03-29T05:57:48;98918.31;;;8.76;66.24
76424;BME280;65257;52.104;4.268;2024-03-29T06:00:14;98934.22;;;8.76;66.75
76424;BME280;65257;52.104;4.268;2024-03-29T06:02:40;98927.75;;;8.78;66.84
76424;BME280;65257;52.104;4.268;2024-03-29T06:05:13;98940.97;;;8.86;66.99
76424;BME280;65257;52.104;4.268;2024-03-29T06:07:38;98932.66;;;8.97;66.56
76424;BME280;65257;52.104;4.268;2024-03-29T06:10:05;98923.34;;;9.01;66.73
76424;BME280;65257;52.104;4.268;2024-03-29T06:12:33;98943.22;;;9.05;66.43
76424;BME280;65257;52.104;4.268;2024-03-29T06:15:00;98936.78;;;9.00;66.72
76424;BME280;65257;52.104;4.268;2024-03-29T06:17:44;98944.09;;;8.98;66.83
76424;BME280;65257;52.104;4.268;2024-03-29T06:20:11;98959.31;;;8.96;67.15
76424;BME280;65257;52.104;4.268;2024-03-29T06:22:40;98951.22;;;8.97;67.79
76424;BME280;65257;52.104;4.268;2024-03-29T06:25:06;98951.03;;;8.99;67.82
76424;BME280;65257;52.104;4.268;2024-03-29T06:27:58;98954.81;;;9.04;67.84
76424;BME280;65257;52.104;4.268;2024-03-29T06:30:28;98979.53;;;9.05;67.99
76424;BME280;65257;52.104;4.268;2024-03-29T06:32:54;98948.00;;;9.10;68.64
76424;BME280;65257;52.104;4.268;2024-03-29T06:35:19;98970.53;;;9.14;69.04
76424;BME280;65257;52.104;4.268;2024-03-29T06:37:47;98944.78;;;9.22;68.79
76424;BME280;65257;52.104;4.268;2024-03-29T06:40:12;98953.38;;;9.33;69.01
76424;BME280;65257;52.104;4.268;2024-03-29T06:42:38;98958.47;;;9.42;68.19
76424;BME280;65257;52.104;4.268;2024-03-29T06:45:15;98967.88;;;9.53;67.92
76424;BME280;65257;52.104;4.268;2024-03-29T06:47:44;98944.38;;;9.64;68.08
76424;BME280;65257;52.104;4.268;2024-03-29T06:50:09;98953.97;;;9.73;67.98
76424;BME280;65257;52.104;4.268;2024-03-29T06:55:20;98966.81;;;9.62;68.40
76424;BME280;65257;52.104;4.268;2024-03-29T06:57:48;98963.31;;;9.61;68.43
76424;BME280;65257;52.104;4.268;2024-03-29T07:00:17;98966.75;;;9.70;68.32
76424;BME280;65257;52.104;4.268;2024-03-29T07:02:42;98976.88;;;9.74;68.50
76424;BME280;65257;52.104;4.268;2024-03-29T07:05:09;98969.19;;;9.79;68.05
76424;BME280;65257;52.104;4.268;2024-03-29T07:07:37;98964.94;;;9.93;67.99
76424;BME280;65257;52.104;4.268;2024-03-29T07:10:07;98965.84;;;10.31;67.00
76424;BME280;65257;52.104;4.268;2024-03-29T07:12:38;98964.34;;;10.66;66.21
76424;BME280;65257;52.104;4.268;2024-03-29T07:15:07;98968.09;;;10.86;65.43
76424;BME280;65257;52.104;4.268;2024-03-29T07:17:32;98968.09;;;10.86;64.87
76424;BME280;65257;52.104;4.268;2024-03-29T07:19:58;98967.47;;;10.84;64.78
76424;BME280;65257;52.104;4.268;2024-03-29T07:22:24;98960.03;;;10.94;64.68
76424;BME280;65257;52.104;4.268;2024-03-29T07:24:54;98958.19;;;11.09;64.25
76424;BME280;65257;52.104;4.268;2024-03-29T07:27:23;98970.09;;;11.28;63.69
76424;BME280;65257;52.104;4.268;2024-03-29T07:29:51;98975.00;;;11.60;62.65
76424;BME280;65257;52.104;4.268;2024-03-29T07:32:19;98984.03;;;11.95;61.70
76424;BME280;65257;52.104;4.268;2024-03-29T07:34:45;98970.84;;;12.29;60.87
76424;BME280;65257;52.104;4.268;2024-03-29T07:37:13;98989.22;;;12.73;59.82
76424;BME280;65257;52.104;4.268;2024-03-29T07:39:41;98985.22;;;13.11;58.79
76424;BME280;65257;52.104;4.268;2024-03-29T07:42:08;98987.28;;;13.22;57.60
76424;BME280;65257;52.104;4.268;2024-03-29T07:44:33;98989.91;;;13.50;57.80
76424;BME280;65257;52.104;4.268;2024-03-29T07:46:59;98979.59;;;14.01;56.35
76424;BME280;65257;52.104;4.268;2024-03-29T07:49:24;98992.44;;;14.58;54.23
76424;BME280;65257;52.104;4.268;2024-03-29T07:51:50;98992.13;;;15.18;52.89
76424;BME280;65257;52.104;4.268;2024-03-29T07:54:15;98993.53;;;15.41;51.66
76424;BME280;65257;52.104;4.268;2024-03-29T07:56:41;99018.13;;;15.75;50.60
76424;BME280;65257;52.104;4.268;2024-03-29T07:59:09;99001.34;;;15.36;50.69
76424;BME280;65257;52.104;4.268;2024-03-29T08:01:37;98992.78;;;15.14;51.77
76424;BME280;65257;52.104;4.268;2024-03-29T08:04:02;98989.28;;;14.94;52.58
76424;BME280;65257;52.104;4.268;2024-03-29T08:06:28;98992.72;;;15.33;51.69
76424;BME280;65257;52.104;4.268;2024-03-29T08:08:55;99014.38;;;16.27;50.03
76424;BME280;65257;52.104;4.268;2024-03-29T08:11:29;99009.00;;;17.62;48.54
76424;BME280;65257;52.104;4.268;2024-03-29T08:13:57;98999.25;;;18.27;45.92
76424;BME280;65257;52.104;4.268;2024-03-29T08:16:23;98984.25;;;18.61;44.38
76424;BME280;65257;52.104;4.268;2024-03-29T08:18:48;98978.50;;;18.16;45.33
76424;BME280;65257;52.104;4.268;2024-03-29T08:21:14;98989.59;;;17.60;45.60
76424;BME280;65257;52.104;4.268;2024-03-29T08:23:40;99006.69;;;16.62;45.90
76424;BME280;65257;52.104;4.268;2024-03-29T08:26:06;99002.38;;;15.99;48.29
76424;BME280;65257;52.104;4.268;2024-03-29T08:28:35;99018.66;;;15.97;48.59
76424;BME280;65257;52.104;4.268;2024-03-29T08:31:07;99011.91;;;15.88;48.41
76424;BME280;65257;52.104;4.268;2024-03-29T08:33:35;99013.25;;;15.59;48.57
76424;BME280;65257;52.104;4.268;2024-03-29T08:36:11;99022.59;;;15.30;49.64
76424;BME280;65257;52.104;4.268;2024-03-29T08:38:37;99021.44;;;14.87;50.21
76424;BME280;65257;52.104;4.268;2024-03-29T08:41:06;99025.78;;;14.68;50.96
76424;BME280;65257;52.104;4.268;2024-03-29T08:43:31;99023.31;;;14.67;50.81
76424;BME280;65257;52.104;4.268;2024-03-29T08:45:57;99026.59;;;14.56;51.50
76424;BME280;65257;52.104;4.268;2024-03-29T08:48:29;99032.34;;;14.66;51.39
76424;BME280;65257;52.104;4.268;2024-03-29T08:50:55;99047.97;;;15.02;50.78
76424;BME280;65257;52.104;4.268;2024-03-29T08:53:20;99045.94;;;14.84;50.55
76424;BME280;65257;52.104;4.268;2024-03-29T08:55:50;99067.97;;;14.53;50.95
76424;BME280;65257;52.104;4.268;2024-03-29T08:58:16;99047.59;;;14.79;50.98
76424;BME280;65257;52.104;4.268;2024-03-29T09:00:42;99034.69;;;15.66;49.96
76424;BME280;65257;52.104;4.268;2024-03-29T09:03:08;99041.78;;;15.98;48.39
76424;BME280;65257;52.104;4.268;2024-03-29T09:05:33;99034.03;;;15.77;48.31
76424;BME280;65257;52.104;4.268;2024-03-29T09:07:59;99049.66;;;15.86;49.28
76424;BME280;65257;52.104;4.268;2024-03-29T09:10:27;99049.44;;;15.88;48.93
76424;BME280;65257;52.104;4.268;2024-03-29T09:12:53;99062.75;;;16.08;48.54
76424;BME280;65257;52.104;4.268;2024-03-29T09:15:19;99069.06;;;16.64;47.42
76424;BME280;65257;52.104;4.268;2024-03-29T09:17:45;99062.16;;;17.97;44.99
76424;BME280;65257;52.104;4.268;2024-03-29T09:20:12;99060.50;;;18.73;43.85
76424;BME280;65257;52.104;4.268;2024-03-29T09:22:37;99065.72;;;20.07;41.81
76424;BME280;65257;52.104;4.268;2024-03-29T09:25:09;99065.78;;;19.96;41.73
76424;BME280;65257;52.104;4.268;2024-03-29T09:27:36;99050.16;;;19.98;41.67
76424;BME280;65257;52.104;4.268;2024-03-29T09:30:03;99065.91;;;20.17;40.84
76424;BME280;65257;52.104;4.268;2024-03-29T09:32:31;99061.94;;;19.69;41.51
76424;BME280;65257;52.104;4.268;2024-03-29T09:34:56;99068.91;;;18.65;42.56
76424;BME280;65257;52.104;4.268;2024-03-29T09:37:21;99070.03;;;18.28;43.22
76424;BME280;65257;52.104;4.268;2024-03-29T09:39:49;99079.38;;;17.59;44.35
76424;BME280;65257;52.104;4.268;2024-03-29T09:42:16;99081.34;;;17.03;45.67
76424;BME280;65257;52.104;4.268;2024-03-29T09:44:45;99080.22;;;17.96;44.65
76424;BME280;65257;52.104;4.268;2024-03-29T09:47:14;99063.94;;;19.04;42.48
76424;BME280;65257;52.104;4.268;2024-03-29T09:49:41;99067.59;;;19.09;42.15
76424;BME280;65257;52.104;4.268;2024-03-29T09:52:09;99063.94;;;19.04;41.45
76424;BME280;65257;52.104;4.268;2024-03-29T09:54:35;99066.13;;;18.42;42.36
76424;BME280;65257;52.104;4.268;2024-03-29T09:57:04;99073.44;;;18.53;42.22
76424;BME280;65257;52.104;4.268;2024-03-29T09:59:33;99062.31;;;18.20;42.66
76424;BME280;65257;52.104;4.268;2024-03-29T10:02:00;99066.19;;;19.07;42.07
76424;BME280;65257;52.104;4.268;2024-03-29T10:04:29;99069.69;;;20.90;38.26
76424;BME280;65257;52.104;4.268;2024-03-29T10:06:58;99057.84;;;21.84;36.47
76424;BME280;65257;52.104;4.268;2024-03-29T10:09:23;99049.19;;;22.04;35.64
76424;BME280;65257;52.104;4.268;2024-03-29T10:11:57;99056.66;;;21.75;36.92
76424;BME280;65257;52.104;4.268;2024-03-29T10:14:22;99059.63;;;22.38;36.06
76424;BME280;65257;52.104;4.268;2024-03-29T10:16:52;99062.72;;;23.47;34.34
76424;BME280;65257;52.104;4.268;2024-03-29T10:19:19;99069.53;;;21.68;35.82
76424;BME280;65257;52.104;4.268;2024-03-29T10:21:44;99065.31;;;19.87;39.41
76424;BME280;65257;52.104;4.268;2024-03-29T10:24:14;99067.84;;;19.42;40.44
76424;BME280;65257;52.104;4.268;2024-03-29T10:26:40;99074.81;;;19.78;39.68
76424;BME280;65257;52.104;4.268;2024-03-29T10:29:06;99087.88;;;19.35;40.56
76424;BME280;65257;52.104;4.268;2024-03-29T10:31:35;99088.19;;;19.96;39.73
76424;BME280;65257;52.104;4.268;2024-03-29T10:34:04;99078.00;;;20.27;39.54
76424;BME280;65257;52.104;4.268;2024-03-29T10:36:36;99092.09;;;20.17;39.33
76424;BME280;65257;52.104;4.268;2024-03-29T10:39:09;99097.91;;;20.65;38.94
76424;BME280;65257;52.104;4.268;2024-03-29T10:41:42;99084.16;;;21.12;37.69
76424;BME280;65257;52.104;4.268;2024-03-29T10:44:14;99086.47;;;20.92;37.27
76424;BME280;65257;52.104;4.268;2024-03-29T10:46:41;99091.75;;;21.31;37.03
76424;BME280;65257;52.104;4.268;2024-03-29T10:49:13;99088.41;;;23.71;33.12
76424;BME280;65257;52.104;4.268;2024-03-29T10:51:42;99104.28;;;24.00;31.94
76424;BME280;65257;52.104;4.268;2024-03-29T10:54:09;99109.44;;;22.86;33.99
76424;BME280;65257;52.104;4.268;2024-03-29T10:56:40;99124.13;;;21.60;35.89
76424;BME280;65257;52.104;4.268;2024-03-29T10:59:22;99125.56;;;20.28;37.20
76424;BME280;65257;52.104;4.268;2024-03-29T11:01:58;99112.34;;;19.22;38.90
76424;BME280;65257;52.104;4.268;2024-03-29T11:04:29;99113.78;;;18.23;40.32
76424;BME280;65257;52.104;4.268;2024-03-29T11:07:15;99120.31;;;18.64;40.12
76424;BME280;65257;52.104;4.268;2024-03-29T11:09:46;99100.22;;;19.54;38.94
76424;BME280;65257;52.104;4.268;2024-03-29T11:12:16;99095.38;;;20.31;37.22
76424;BME280;65257;52.104;4.268;2024-03-29T11:14:46;99108.22;;;20.68;36.73
76424;BME280;65257;52.104;4.268;2024-03-29T11:17:17;99135.84;;;21.32;35.92
76424;BME280;65257;52.104;4.268;2024-03-29T11:19:46;99102.78;;;21.47;35.38
76424;BME280;65257;52.104;4.268;2024-03-29T11:22:16;99146.00;;;21.58;34.68
76424;BME280;65257;52.104;4.268;2024-03-29T11:24:44;99129.81;;;21.97;33.97
76424;BME280;65257;52.104;4.268;2024-03-29T11:27:10;99139.16;;;22.76;32.63
76424;BME280;65257;52.104;4.268;2024-03-29T11:29:42;99133.00;;;21.93;33.82
76424;BME280;65257;52.104;4.268;2024-03-29T11:32:10;99145.19;;;21.08;34.34
76424;BME280;65257;52.104;4.268;2024-03-29T11:34:43;99128.41;;;20.09;36.25
76424;BME280;65257;52.104;4.268;2024-03-29T11:37:12;99135.13;;;19.95;37.05
76424;BME280;65257;52.104;4.268;2024-03-29T11:39:38;99167.97;;;19.92;36.71
76424;BME280;65257;52.104;4.268;2024-03-29T11:42:08;99140.19;;;19.57;37.60
76424;BME280;65257;52.104;4.268;2024-03-29T11:44:34;99133.31;;;20.52;36.21
76424;BME280;65257;52.104;4.268;2024-03-29T11:47:01;99129.28;;;22.00;34.19
76424;BME280;65257;52.104;4.268;2024-03-29T11:49:31;99129.63;;;22.46;33.49
76424;BME280;65257;52.104;4.268;2024-03-29T11:52:06;99128.84;;;22.73;32.86
76424;BME280;65257;52.104;4.268;2024-03-29T11:54:39;99122.72;;;22.39;33.51
76424;BME280;65257;52.104;4.268;2024-03-29T11:57:05;99130.97;;;23.61;32.24
76424;BME280;65257;52.104;4.268;2024-03-29T11:59:30;99127.84;;;23.84;30.89
76424;BME280;65257;52.104;4.268;2024-03-29T12:01:57;99135.63;;;23.02;32.07
76424;BME280;65257;52.104;4.268;2024-03-29T12:04:23;99147.19;;;22.44;32.12
76424;BME280;65257;52.104;4.268;2024-03-29T12:06:50;99193.44;;;22.81;31.40
76424;BME280;65257;52.104;4.268;2024-03-29T12:09:21;99133.66;;;21.84;33.43
76424;BME280;65257;52.104;4.268;2024-03-29T12:11:47;99144.97;;;23.90;31.71
76424;BME280;65257;52.104;4.268;2024-03-29T12:14:17;99142.72;;;25.21;29.80
76424;BME280;65257;52.104;4.268;2024-03-29T12:16:45;99139.75;;;25.68;28.47
76424;BME280;65257;52.104;4.268;2024-03-29T12:19:22;99135.81;;;26.19;26.99
76424;BME280;65257;52.104;4.268;2024-03-29T12:21:48;99130.22;;;25.05;28.39
76424;BME280;65257;52.104;4.268;2024-03-29T12:24:13;99144.44;;;24.40;29.44
76424;BME280;65257;52.104;4.268;2024-03-29T12:26:39;99139.31;;;22.64;31.31
76424;BME280;65257;52.104;4.268;2024-03-29T12:29:06;99141.41;;;22.14;32.26
76424;BME280;65257;52.104;4.268;2024-03-29T12:31:32;99148.13;;;22.54;31.60
76424;BME280;65257;52.104;4.268;2024-03-29T12:33:57;99141.63;;;22.77;31.63
76424;BME280;65257;52.104;4.268;2024-03-29T12:36:24;99141.69;;;22.39;32.70
76424;BME280;65257;52.104;4.268;2024-03-29T12:39:01;99149.81;;;21.96;33.20
76424;BME280;65257;52.104;4.268;2024-03-29T12:41:31;99165.75;;;21.09;34.31
76424;BME280;65257;52.104;4.268;2024-03-29T12:43:58;99139.56;;;21.81;33.81
76424;BME280;65257;52.104;4.268;2024-03-29T12:46:25;99141.50;;;21.14;34.36
76424;BME280;65257;52.104;4.268;2024-03-29T12:48:58;99138.59;;;20.59;35.08
76424;BME280;65257;52.104;4.268;2024-03-29T12:51:27;99147.69;;;19.78;36.31
76424;BME280;65257;52.104;4.268;2024-03-29T12:53:54;99155.78;;;19.55;36.80
76424;BME280;65257;52.104;4.268;2024-03-29T12:56:21;99159.69;;;19.18;37.00
76424;BME280;65257;52.104;4.268;2024-03-29T12:58:46;99160.63;;;19.12;37.79
76424;BME280;65257;52.104;4.268;2024-03-29T13:01:12;99153.22;;;18.96;38.11
76424;BME280;65257;52.104;4.268;2024-03-29T13:03:37;99142.69;;;19.06;38.04
76424;BME280;65257;52.104;4.268;2024-03-29T13:06:04;99138.59;;;19.26;37.92
76424;BME280;65257;52.104;4.268;2024-03-29T13:08:29;99144.59;;;19.17;37.25
76424;BME280;65257;52.104;4.268;2024-03-29T13:10:55;99149.88;;;18.82;37.89
76424;BME280;65257;52.104;4.268;2024-03-29T13:13:20;99157.56;;;18.67;38.49